Airfield :
LOGIN :

Register | Disclaimer

   EN    FR    IT 

 










Legend :    VFR   Marginal VFR   IFR   Intensive IFR   Very Intensive IFR
Visi :
Ceiling :
>= 8 km
>= 3000ft
5 to 8 km
1000 to 3000 ft
1500m to 5 km
500 to 1000 ft
800 to 1500m
200 to 500 ft
< 800m
< 200 ft
Symbols :   Thunderstorms  Fog  Heavy snow  Heavy precipitations  Wind > 20 kt
SIGMETs :     Misc.  Thunderstorms  Icing  Turbulence  Mountain Waves  Volcanic Ashes







- Airport Elevation : 74 ft
- IATA code : EIN


EHEH - Eindhoven

CURRENT METAR :
  • 250025Z AUTO 22010KT 200V260 9999 OVC025 14/10 Q1008 BLU

EXPIRED METARs :
  • 250014Z AUTO 22010KT 9999 OVC025 14/11 Q1008 BLU
  • 250008Z AUTO 23010KT 200V260 9999 BKN022 BKN026 OVC058 14/11 Q1008 WHT
  • 250004Z AUTO 23009KT 200V260 9999 SCT022 SCT028 OVC058 14/10 Q1008 WHT
  • 242355Z AUTO 23009KT 190V260 9999 FEW024 BKN055 OVC061 14/10 Q1009 BLU
  • 242325Z AUTO 24008KT 210V290 9999 BKN051 OVC056 14/10 Q1009 BLU
  • 242255Z AUTO 22005KT 9999 OVC055 14/10 Q1009 BLU
  • 242225Z AUTO 22006KT 190V270 9999 OVC053 14/10 Q1010 BLU
  • 242155Z AUTO 22009KT 9999 FEW043 OVC076 14/10 Q1010 BLU

TAF TAF EHEH
Valid from the 25 at 00:00 until the 26 at 06:00 UTC


242347Z 2500/2606 25010KT 9999 SCT030 BKN050
BECMG 2500/2502 26012G22KT SCT015 BKN020
BECMG 2502/2504 FEW007 SCT012 BKN015
TEMPO 2502/2506 3500 RADZ SCT005 BKN008 OVC012
PROB40
TEMPO 2504/2510 3000 SHRA BKN005 BKN020CB
BECMG 2507/2509 BKN025
TEMPO 2514/2602 4000 SHRA SCT025CB BKN030
PROB30
TEMPO 2520/2524 3000 SHRAGS TSRAGS FEW012 BKN020CB
No reported NOTAMs for that airfield.



MET'MAP, your aeronautical weather chart ! - Copyright ORBIFLY December 2007 - Disclaimer

ORBIFLY MET'MAP TEAM :

Programming & Development : Alexandra Zaïnal
Concept & Development : Baudouin d'Aumeries
Co-Development & Prog : Marc-Olivier Méhu
Technical & hardware support : Manuel Goepfert

Contact : metmap@orbifly.com




SOURCES & CREDITS :

   NOAA